sensor_id;sensor_type;location;lat;lon;timestamp;temperature;humidity
18888;DHT22;9576;47.792;9.628;2022-09-01T00:02:59;14.60;99.90
18888;DHT22;9576;47.792;9.628;2022-09-01T00:06:03;14.60;99.90
18888;DHT22;9576;47.792;9.628;2022-09-01T00:09:12;14.60;99.90
18888;DHT22;9576;47.792;9.628;2022-09-01T00:12:14;14.60;99.90
18888;DHT22;9576;47.792;9.628;2022-09-01T00:15:16;14.70;99.90
18888;DHT22;9576;47.792;9.628;2022-09-01T00:18:19;14.70;99.90
18888;DHT22;9576;47.792;9.628;2022-09-01T00:21:29;14.80;99.90
18888;DHT22;9576;47.792;9.628;2022-09-01T00:24:31;14.70;99.90
18888;DHT22;9576;47.792;9.628;2022-09-01T00:27:33;14.70;99.90
18888;DHT22;9576;47.792;9.628;2022-09-01T00:30:36;14.70;99.90
18888;DHT22;9576;47.792;9.628;2022-09-01T00:33:38;14.70;99.90
18888;DHT22;9576;47.792;9.628;2022-09-01T00:36:42;14.70;99.90
18888;DHT22;9576;47.792;9.628;2022-09-01T00:39:44;14.70;99.90
18888;DHT22;9576;47.792;9.628;2022-09-01T00:42:46;14.70;99.90
18888;DHT22;9576;47.792;9.628;2022-09-01T00:45:49;14.70;99.90
18888;DHT22;9576;47.792;9.628;2022-09-01T00:48:55;14.70;99.90
18888;DHT22;9576;47.792;9.628;2022-09-01T00:52:02;14.70;99.90
18888;DHT22;9576;47.792;9.628;2022-09-01T00:55:10;14.80;99.90
18888;DHT22;9576;47.792;9.628;2022-09-01T00:58:12;14.80;99.90
18888;DHT22;9576;47.792;9.628;2022-09-01T01:01:15;14.80;99.90
18888;DHT22;9576;47.792;9.628;2022-09-01T01:04:17;14.90;99.90
18888;DHT22;9576;47.792;9.628;2022-09-01T01:07:21;14.80;99.90
18888;DHT22;9576;47.792;9.628;2022-09-01T01:10:24;14.70;99.90
18888;DHT22;9576;47.792;9.628;2022-09-01T01:13:26;14.80;99.90
18888;DHT22;9576;47.792;9.628;2022-09-01T01:16:36;14.80;99.90
18888;DHT22;9576;47.792;9.628;2022-09-01T01:19:42;14.80;99.90
18888;DHT22;9576;47.792;9.628;2022-09-01T01:23:09;14.90;99.90
18888;DHT22;9576;47.792;9.628;2022-09-01T01:26:14;14.90;99.90
18888;DHT22;9576;47.792;9.628;2022-09-01T01:29:16;15.00;99.90
18888;DHT22;9576;47.792;9.628;2022-09-01T01:32:19;15.00;99.90
18888;DHT22;9576;47.792;9.628;2022-09-01T01:35:21;14.90;99.90
18888;DHT22;9576;47.792;9.628;2022-09-01T01:38:26;15.00;99.90
18888;DHT22;9576;47.792;9.628;2022-09-01T01:41:32;14.90;99.90
18888;DHT22;9576;47.792;9.628;2022-09-01T01:44:36;14.90;99.90
18888;DHT22;9576;47.792;9.628;2022-09-01T01:47:38;14.90;99.90
18888;DHT22;9576;47.792;9.628;2022-09-01T01:50:40;14.90;99.90
18888;DHT22;9576;47.792;9.628;2022-09-01T01:53:42;14.80;99.90
18888;DHT22;9576;47.792;9.628;2022-09-01T01:56:46;14.80;99.90
18888;DHT22;9576;47.792;9.628;2022-09-01T01:59:48;14.80;99.90
18888;DHT22;9576;47.792;9.628;2022-09-01T02:02:50;14.70;99.90
18888;DHT22;9576;47.792;9.628;2022-09-01T02:05:53;14.70;99.90
18888;DHT22;9576;47.792;9.628;2022-09-01T02:08:56;14.70;99.90
18888;DHT22;9576;47.792;9.628;2022-09-01T02:12:03;14.60;99.90
18888;DHT22;9576;47.792;9.628;2022-09-01T02:15:08;14.60;99.90
18888;DHT22;9576;47.792;9.628;2022-09-01T02:18:14;14.50;99.90
18888;DHT22;9576;47.792;9.628;2022-09-01T02:21:19;14.50;99.90
18888;DHT22;9576;47.792;9.628;2022-09-01T02:24:22;14.50;99.90
18888;DHT22;9576;47.792;9.628;2022-09-01T02:27:27;14.40;99.90
18888;DHT22;9576;47.792;9.628;2022-09-01T02:30:30;14.40;99.90
18888;DHT22;9576;47.792;9.628;2022-09-01T02:33:33;14.40;99.90
18888;DHT22;9576;47.792;9.628;2022-09-01T02:36:36;14.40;99.90
18888;DHT22;9576;47.792;9.628;2022-09-01T02:39:47;14.40;99.90
18888;DHT22;9576;47.792;9.628;2022-09-01T02:42:50;14.30;99.90
18888;DHT22;9576;47.792;9.628;2022-09-01T02:45:57;14.30;99.90
18888;DHT22;9576;47.792;9.628;2022-09-01T02:49:00;14.30;99.90
18888;DHT22;9576;47.792;9.628;2022-09-01T02:52:04;14.30;99.90
18888;DHT22;9576;47.792;9.628;2022-09-01T02:55:08;14.30;99.90
18888;DHT22;9576;47.792;9.628;2022-09-01T02:58:13;14.20;99.90
18888;DHT22;9576;47.792;9.628;2022-09-01T03:01:20;14.20;99.90
18888;DHT22;9576;47.792;9.628;2022-09-01T03:04:24;14.20;99.90
18888;DHT22;9576;47.792;9.628;2022-09-01T03:07:27;14.20;99.90
18888;DHT22;9576;47.792;9.628;2022-09-01T03:10:32;14.20;99.90
18888;DHT22;9576;47.792;9.628;2022-09-01T03:13:38;14.20;99.90
18888;DHT22;9576;47.792;9.628;2022-09-01T03:16:40;14.20;99.90
18888;DHT22;9576;47.792;9.628;2022-09-01T03:19:42;14.20;99.90
18888;DHT22;9576;47.792;9.628;2022-09-01T03:22:47;14.20;99.90
18888;DHT22;9576;47.792;9.628;2022-09-01T03:25:50;14.10;99.90
18888;DHT22;9576;47.792;9.628;2022-09-01T03:28:54;14.10;99.90
18888;DHT22;9576;47.792;9.628;2022-09-01T03:31:56;14.10;99.90
18888;DHT22;9576;47.792;9.628;2022-09-01T03:34:58;14.10;99.90
18888;DHT22;9576;47.792;9.628;2022-09-01T03:38:01;14.00;99.90
18888;DHT22;9576;47.792;9.628;2022-09-01T03:41:04;14.00;99.90
18888;DHT22;9576;47.792;9.628;2022-09-01T03:44:08;14.00;99.90
18888;DHT22;9576;47.792;9.628;2022-09-01T03:47:11;14.00;99.90
18888;DHT22;9576;47.792;9.628;2022-09-01T03:50:18;13.90;99.90
18888;DHT22;9576;47.792;9.628;2022-09-01T03:53:22;13.90;99.90
18888;DHT22;9576;47.792;9.628;2022-09-01T03:56:28;13.90;99.90
18888;DHT22;9576;47.792;9.628;2022-09-01T03:59:32;13.90;99.90
18888;DHT22;9576;47.792;9.628;2022-09-01T04:02:34;13.90;99.90
18888;DHT22;9576;47.792;9.628;2022-09-01T04:05:37;13.90;99.90
18888;DHT22;9576;47.792;9.628;2022-09-01T04:08:40;13.90;99.90
18888;DHT22;9576;47.792;9.628;2022-09-01T04:11:42;13.90;99.90
18888;DHT22;9576;47.792;9.628;2022-09-01T04:14:47;13.90;99.90
18888;DHT22;9576;47.792;9.628;2022-09-01T04:17:50;13.80;99.90
18888;DHT22;9576;47.792;9.628;2022-09-01T04:21:11;13.80;99.90
18888;DHT22;9576;47.792;9.628;2022-09-01T04:24:13;13.80;99.90
18888;DHT22;9576;47.792;9.628;2022-09-01T04:27:15;13.80;99.90
18888;DHT22;9576;47.792;9.628;2022-09-01T04:30:24;13.80;99.90
18888;DHT22;9576;47.792;9.628;2022-09-01T04:33:32;13.80;99.90
18888;DHT22;9576;47.792;9.628;2022-09-01T04:36:36;13.80;99.90
18888;DHT22;9576;47.792;9.628;2022-09-01T04:39:40;13.80;99.90
18888;DHT22;9576;47.792;9.628;2022-09-01T04:42:48;13.80;99.90
18888;DHT22;9576;47.792;9.628;2022-09-01T04:45:51;13.70;99.90
18888;DHT22;9576;47.792;9.628;2022-09-01T04:48:54;13.70;99.90
18888;DHT22;9576;47.792;9.628;2022-09-01T04:51:57;13.70;99.90
18888;DHT22;9576;47.792;9.628;2022-09-01T04:54:59;13.70;99.90
18888;DHT22;9576;47.792;9.628;2022-09-01T04:58:02;13.70;99.90
18888;DHT22;9576;47.792;9.628;2022-09-01T05:01:14;13.70;99.90
18888;DHT22;9576;47.792;9.628;2022-09-01T05:04:19;13.70;99.90
18888;DHT22;9576;47.792;9.628;2022-09-01T05:07:22;13.80;99.90
18888;DHT22;9576;47.792;9.628;2022-09-01T05:10:24;13.70;99.90
18888;DHT22;9576;47.792;9.628;2022-09-01T05:13:29;13.80;99.90
18888;DHT22;9576;47.792;9.628;2022-09-01T05:16:34;13.80;99.90
18888;DHT22;9576;47.792;9.628;2022-09-01T05:19:38;13.80;99.90
18888;DHT22;9576;47.792;9.628;2022-09-01T05:22:40;13.80;99.90
18888;DHT22;9576;47.792;9.628;2022-09-01T05:25:43;13.90;99.90
18888;DHT22;9576;47.792;9.628;2022-09-01T05:28:47;13.90;99.90
18888;DHT22;9576;47.792;9.628;2022-09-01T05:31:50;14.00;99.90
18888;DHT22;9576;47.792;9.628;2022-09-01T05:34:54;14.00;99.90
18888;DHT22;9576;47.792;9.628;2022-09-01T05:37:56;14.20;99.90
18888;DHT22;9576;47.792;9.628;2022-09-01T05:41:01;14.30;99.90
18888;DHT22;9576;47.792;9.628;2022-09-01T05:44:04;14.40;99.90
18888;DHT22;9576;47.792;9.628;2022-09-01T05:47:09;14.40;99.90
18888;DHT22;9576;47.792;9.628;2022-09-01T05:50:12;14.50;99.90
18888;DHT22;9576;47.792;9.628;2022-09-01T05:53:19;14.50;99.90
18888;DHT22;9576;47.792;9.628;2022-09-01T05:56:21;14.50;99.90
18888;DHT22;9576;47.792;9.628;2022-09-01T05:59:23;14.60;99.90
18888;DHT22;9576;47.792;9.628;2022-09-01T06:02:28;14.70;99.90
18888;DHT22;9576;47.792;9.628;2022-09-01T06:05:33;14.70;99.90
18888;DHT22;9576;47.792;9.628;2022-09-01T06:08:37;14.80;99.90
18888;DHT22;9576;47.792;9.628;2022-09-01T06:11:42;14.80;99.90
18888;DHT22;9576;47.792;9.628;2022-09-01T06:14:47;14.80;99.90
18888;DHT22;9576;47.792;9.628;2022-09-01T06:17:51;14.90;99.90
18888;DHT22;9576;47.792;9.628;2022-09-01T06:20:54;14.90;99.90
18888;DHT22;9576;47.792;9.628;2022-09-01T06:23:57;14.90;99.90
18888;DHT22;9576;47.792;9.628;2022-09-01T06:27:00;14.90;99.90
18888;DHT22;9576;47.792;9.628;2022-09-01T06:30:02;15.00;99.90
18888;DHT22;9576;47.792;9.628;2022-09-01T06:33:14;15.10;99.90
18888;DHT22;9576;47.792;9.628;2022-09-01T06:36:16;15.10;99.90
18888;DHT22;9576;47.792;9.628;2022-09-01T06:39:20;15.20;99.90
18888;DHT22;9576;47.792;9.628;2022-09-01T06:42:23;15.20;99.90
18888;DHT22;9576;47.792;9.628;2022-09-01T06:45:25;15.10;99.90
18888;DHT22;9576;47.792;9.628;2022-09-01T06:48:29;15.10;99.90
18888;DHT22;9576;47.792;9.628;2022-09-01T06:51:31;15.20;99.90
18888;DHT22;9576;47.792;9.628;2022-09-01T06:54:33;15.10;99.90
18888;DHT22;9576;47.792;9.628;2022-09-01T06:57:39;15.10;99.90
18888;DHT22;9576;47.792;9.628;2022-09-01T07:00:42;15.10;99.90
18888;DHT22;9576;47.792;9.628;2022-09-01T07:03:47;15.20;99.90
18888;DHT22;9576;47.792;9.628;2022-09-01T07:06:50;15.20;99.90
18888;DHT22;9576;47.792;9.628;2022-09-01T07:09:52;15.20;99.90
18888;DHT22;9576;47.792;9.628;2022-09-01T07:12:56;15.30;99.90
18888;DHT22;9576;47.792;9.628;2022-09-01T07:16:02;15.40;99.90
18888;DHT22;9576;47.792;9.628;2022-09-01T07:19:09;15.50;99.90
18888;DHT22;9576;47.792;9.628;2022-09-01T07:22:14;15.50;99.90
18888;DHT22;9576;47.792;9.628;2022-09-01T07:25:17;15.60;99.90
18888;DHT22;9576;47.792;9.628;2022-09-01T07:28:21;15.60;99.90
18888;DHT22;9576;47.792;9.628;2022-09-01T07:31:26;15.70;99.90
18888;DHT22;9576;47.792;9.628;2022-09-01T07:34:30;15.80;99.90
18888;DHT22;9576;47.792;9.628;2022-09-01T07:37:32;15.90;99.90
18888;DHT22;9576;47.792;9.628;2022-09-01T07:40:37;16.10;99.90
18888;DHT22;9576;47.792;9.628;2022-09-01T07:43:41;16.20;99.90
18888;DHT22;9576;47.792;9.628;2022-09-01T07:46:44;16.30;99.90
18888;DHT22;9576;47.792;9.628;2022-09-01T07:49:53;16.50;99.90
18888;DHT22;9576;47.792;9.628;2022-09-01T07:52:55;16.60;99.90
18888;DHT22;9576;47.792;9.628;2022-09-01T07:55:59;16.70;99.90
18888;DHT22;9576;47.792;9.628;2022-09-01T07:59:02;16.70;99.90
18888;DHT22;9576;47.792;9.628;2022-09-01T08:02:04;16.90;99.90
18888;DHT22;9576;47.792;9.628;2022-09-01T08:05:09;17.00;99.90
18888;DHT22;9576;47.792;9.628;2022-09-01T08:08:13;17.10;99.90
18888;DHT22;9576;47.792;9.628;2022-09-01T08:11:17;17.20;99.90
18888;DHT22;9576;47.792;9.628;2022-09-01T08:14:20;17.20;99.90
18888;DHT22;9576;47.792;9.628;2022-09-01T08:17:22;17.20;99.90
18888;DHT22;9576;47.792;9.628;2022-09-01T08:20:26;17.30;99.90
18888;DHT22;9576;47.792;9.628;2022-09-01T08:23:28;17.50;99.90
18888;DHT22;9576;47.792;9.628;2022-09-01T08:26:30;17.70;99.90
18888;DHT22;9576;47.792;9.628;2022-09-01T08:29:33;17.90;99.90
18888;DHT22;9576;47.792;9.628;2022-09-01T08:32:36;18.00;99.90
18888;DHT22;9576;47.792;9.628;2022-09-01T08:35:46;18.20;99.90
18888;DHT22;9576;47.792;9.628;2022-09-01T08:38:49;18.20;99.90
18888;DHT22;9576;47.792;9.628;2022-09-01T08:42:00;18.20;99.90
18888;DHT22;9576;47.792;9.628;2022-09-01T08:45:09;18.40;99.90
18888;DHT22;9576;47.792;9.628;2022-09-01T08:48:16;18.50;99.90
18888;DHT22;9576;47.792;9.628;2022-09-01T08:51:26;18.50;99.90
18888;DHT22;9576;47.792;9.628;2022-09-01T08:54:36;18.50;99.90
18888;DHT22;9576;47.792;9.628;2022-09-01T08:57:41;18.60;99.90
18888;DHT22;9576;47.792;9.628;2022-09-01T09:00:46;18.70;99.90
18888;DHT22;9576;47.792;9.628;2022-09-01T09:04:03;18.80;99.90
18888;DHT22;9576;47.792;9.628;2022-09-01T09:07:13;18.80;99.90
18888;DHT22;9576;47.792;9.628;2022-09-01T09:10:22;18.80;99.90
18888;DHT22;9576;47.792;9.628;2022-09-01T09:13:34;19.00;99.90
18888;DHT22;9576;47.792;9.628;2022-09-01T09:16:41;19.20;99.90
18888;DHT22;9576;47.792;9.628;2022-09-01T09:19:46;19.40;99.90
18888;DHT22;9576;47.792;9.628;2022-09-01T09:22:50;19.40;99.90
18888;DHT22;9576;47.792;9.628;2022-09-01T09:25:53;19.50;99.90
18888;DHT22;9576;47.792;9.628;2022-09-01T09:28:57;19.70;99.90
18888;DHT22;9576;47.792;9.628;2022-09-01T09:32:04;19.90;99.90
18888;DHT22;9576;47.792;9.628;2022-09-01T09:35:21;20.00;99.90
18888;DHT22;9576;47.792;9.628;2022-09-01T09:38:25;20.00;99.90
18888;DHT22;9576;47.792;9.628;2022-09-01T09:41:31;19.90;99.90
18888;DHT22;9576;47.792;9.628;2022-09-01T09:44:37;19.80;99.90
18888;DHT22;9576;47.792;9.628;2022-09-01T09:47:42;19.60;99.90
18888;DHT22;9576;47.792;9.628;2022-09-01T09:50:46;19.50;99.90
18888;DHT22;9576;47.792;9.628;2022-09-01T09:53:49;19.40;99.90
18888;DHT22;9576;47.792;9.628;2022-09-01T09:57:09;19.30;99.90
18888;DHT22;9576;47.792;9.628;2022-09-01T10:00:19;19.50;99.90
18888;DHT22;9576;47.792;9.628;2022-09-01T10:03:34;19.70;99.90
18888;DHT22;9576;47.792;9.628;2022-09-01T10:06:38;20.10;99.90
18888;DHT22;9576;47.792;9.628;2022-09-01T10:09:42;20.40;99.90
18888;DHT22;9576;47.792;9.628;2022-09-01T10:12:45;20.50;99.90
18888;DHT22;9576;47.792;9.628;2022-09-01T10:15:49;20.70;99.90
18888;DHT22;9576;47.792;9.628;2022-09-01T10:18:52;21.00;99.90
18888;DHT22;9576;47.792;9.628;2022-09-01T10:21:59;21.00;99.90
18888;DHT22;9576;47.792;9.628;2022-09-01T10:25:06;21.00;99.90
18888;DHT22;9576;47.792;9.628;2022-09-01T10:28:11;21.10;99.90
18888;DHT22;9576;47.792;9.628;2022-09-01T10:31:15;21.20;99.90
18888;DHT22;9576;47.792;9.628;2022-09-01T10:34:18;21.60;99.90
18888;DHT22;9576;47.792;9.628;2022-09-01T10:37:22;21.80;99.90
18888;DHT22;9576;47.792;9.628;2022-09-01T10:40:38;21.90;99.90
18888;DHT22;9576;47.792;9.628;2022-09-01T10:43:42;22.00;99.90
18888;DHT22;9576;47.792;9.628;2022-09-01T10:46:45;22.10;99.90
18888;DHT22;9576;47.792;9.628;2022-09-01T10:50:00;21.90;99.90
18888;DHT22;9576;47.792;9.628;2022-09-01T10:53:05;21.80;99.90
18888;DHT22;9576;47.792;9.628;2022-09-01T10:56:10;21.50;99.90
18888;DHT22;9576;47.792;9.628;2022-09-01T10:59:24;21.50;99.90
18888;DHT22;9576;47.792;9.628;2022-09-01T11:02:27;21.70;99.90
18888;DHT22;9576;47.792;9.628;2022-09-01T11:05:58;22.00;99.90
18888;DHT22;9576;47.792;9.628;2022-09-01T11:09:02;22.40;99.90
18888;DHT22;9576;47.792;9.628;2022-09-01T11:12:19;22.50;99.90
18888;DHT22;9576;47.792;9.628;2022-09-01T11:15:37;22.60;99.90
18888;DHT22;9576;47.792;9.628;2022-09-01T11:18:39;22.40;99.90
18888;DHT22;9576;47.792;9.628;2022-09-01T11:21:43;22.50;99.90
18888;DHT22;9576;47.792;9.628;2022-09-01T11:24:52;22.30;99.90
18888;DHT22;9576;47.792;9.628;2022-09-01T11:28:35;22.10;99.90
18888;DHT22;9576;47.792;9.628;2022-09-01T11:31:41;21.80;99.90
18888;DHT22;9576;47.792;9.628;2022-09-01T11:34:47;21.70;99.90
18888;DHT22;9576;47.792;9.628;2022-09-01T11:37:52;21.50;99.90
18888;DHT22;9576;47.792;9.628;2022-09-01T11:40:56;21.70;99.90
18888;DHT22;9576;47.792;9.628;2022-09-01T11:44:02;22.00;99.90
18888;DHT22;9576;47.792;9.628;2022-09-01T11:47:12;22.10;99.90
18888;DHT22;9576;47.792;9.628;2022-09-01T11:50:19;21.90;99.90
18888;DHT22;9576;47.792;9.628;2022-09-01T11:53:23;21.80;99.90
18888;DHT22;9576;47.792;9.628;2022-09-01T11:56:26;21.50;99.90
18888;DHT22;9576;47.792;9.628;2022-09-01T11:59:32;21.60;99.90
18888;DHT22;9576;47.792;9.628;2022-09-01T12:02:40;22.10;99.90
18888;DHT22;9576;47.792;9.628;2022-09-01T12:05:45;22.40;99.90
18888;DHT22;9576;47.792;9.628;2022-09-01T12:08:54;22.70;99.90
18888;DHT22;9576;47.792;9.628;2022-09-01T12:11:57;22.70;99.90
18888;DHT22;9576;47.792;9.628;2022-09-01T12:15:05;23.00;99.90
18888;DHT22;9576;47.792;9.628;2022-09-01T12:18:17;23.20;99.90
18888;DHT22;9576;47.792;9.628;2022-09-01T12:21:23;23.10;99.90
18888;DHT22;9576;47.792;9.628;2022-09-01T12:24:26;22.90;99.90
18888;DHT22;9576;47.792;9.628;2022-09-01T12:27:28;23.30;99.90
18888;DHT22;9576;47.792;9.628;2022-09-01T12:30:33;23.40;99.90
18888;DHT22;9576;47.792;9.628;2022-09-01T12:33:39;23.20;99.90
18888;DHT22;9576;47.792;9.628;2022-09-01T12:36:43;23.10;99.90
18888;DHT22;9576;47.792;9.628;2022-09-01T12:40:03;23.50;99.90
18888;DHT22;9576;47.792;9.628;2022-09-01T12:43:05;24.20;99.90
18888;DHT22;9576;47.792;9.628;2022-09-01T12:46:11;24.50;99.90
18888;DHT22;9576;47.792;9.628;2022-09-01T12:49:17;24.80;99.90
18888;DHT22;9576;47.792;9.628;2022-09-01T12:52:22;25.40;99.90
18888;DHT22;9576;47.792;9.628;2022-09-01T12:55:27;25.90;99.90
18888;DHT22;9576;47.792;9.628;2022-09-01T12:58:30;26.10;99.90
18888;DHT22;9576;47.792;9.628;2022-09-01T13:01:34;26.30;99.90
18888;DHT22;9576;47.792;9.628;2022-09-01T13:04:37;26.40;99.90
18888;DHT22;9576;47.792;9.628;2022-09-01T13:07:41;26.20;99.90
18888;DHT22;9576;47.792;9.628;2022-09-01T13:10:45;25.60;99.90
18888;DHT22;9576;47.792;9.628;2022-09-01T13:13:47;25.00;99.90
18888;DHT22;9576;47.792;9.628;2022-09-01T13:16:51;25.00;99.90
18888;DHT22;9576;47.792;9.628;2022-09-01T13:19:53;24.90;99.90
18888;DHT22;9576;47.792;9.628;2022-09-01T13:22:55;24.80;99.90
18888;DHT22;9576;47.792;9.628;2022-09-01T13:25:58;24.50;99.90
18888;DHT22;9576;47.792;9.628;2022-09-01T13:29:01;24.80;99.90
18888;DHT22;9576;47.792;9.628;2022-09-01T13:32:04;25.40;99.90
18888;DHT22;9576;47.792;9.628;2022-09-01T13:35:07;25.90;99.90
18888;DHT22;9576;47.792;9.628;2022-09-01T13:38:10;26.00;99.90
18888;DHT22;9576;47.792;9.628;2022-09-01T13:41:15;26.20;99.90
18888;DHT22;9576;47.792;9.628;2022-09-01T13:44:18;26.70;99.90
18888;DHT22;9576;47.792;9.628;2022-09-01T13:47:21;27.00;99.90
18888;DHT22;9576;47.792;9.628;2022-09-01T13:50:25;26.60;99.90
18888;DHT22;9576;47.792;9.628;2022-09-01T13:53:27;26.10;99.90
18888;DHT22;9576;47.792;9.628;2022-09-01T13:56:29;25.70;99.90
18888;DHT22;9576;47.792;9.628;2022-09-01T13:59:31;25.90;99.90
18888;DHT22;9576;47.792;9.628;2022-09-01T14:02:35;26.30;99.90
18888;DHT22;9576;47.792;9.628;2022-09-01T14:05:40;26.20;99.90
18888;DHT22;9576;47.792;9.628;2022-09-01T14:08:43;26.10;99.90
18888;DHT22;9576;47.792;9.628;2022-09-01T14:11:45;26.40;99.90
18888;DHT22;9576;47.792;9.628;2022-09-01T14:14:47;27.10;99.90
18888;DHT22;9576;47.792;9.628;2022-09-01T14:17:52;27.30;99.90
18888;DHT22;9576;47.792;9.628;2022-09-01T14:20:56;27.00;99.90
18888;DHT22;9576;47.792;9.628;2022-09-01T14:24:01;26.50;99.90
18888;DHT22;9576;47.792;9.628;2022-09-01T14:27:03;26.10;99.90
18888;DHT22;9576;47.792;9.628;2022-09-01T14:30:08;26.00;99.90
18888;DHT22;9576;47.792;9.628;2022-09-01T14:33:13;26.30;99.90
18888;DHT22;9576;47.792;9.628;2022-09-01T14:36:17;27.60;99.90
18888;DHT22;9576;47.792;9.628;2022-09-01T14:39:20;29.00;99.90
18888;DHT22;9576;47.792;9.628;2022-09-01T14:42:23;27.80;99.90
18888;DHT22;9576;47.792;9.628;2022-09-01T14:45:28;26.80;99.90
18888;DHT22;9576;47.792;9.628;2022-09-01T14:48:32;26.20;99.90
18888;DHT22;9576;47.792;9.628;2022-09-01T14:51:34;25.80;99.90
18888;DHT22;9576;47.792;9.628;2022-09-01T14:54:39;26.60;99.90
18888;DHT22;9576;47.792;9.628;2022-09-01T14:57:42;27.60;99.90
18888;DHT22;9576;47.792;9.628;2022-09-01T15:00:44;29.30;99.90
18888;DHT22;9576;47.792;9.628;2022-09-01T15:03:48;30.70;99.90
18888;DHT22;9576;47.792;9.628;2022-09-01T15:06:50;31.10;99.90
18888;DHT22;9576;47.792;9.628;2022-09-01T15:09:53;31.30;99.00
18888;DHT22;9576;47.792;9.628;2022-09-01T15:12:56;30.50;98.80
18888;DHT22;9576;47.792;9.628;2022-09-01T15:15:58;29.40;99.90
18888;DHT22;9576;47.792;9.628;2022-09-01T15:19:02;29.40;99.90
18888;DHT22;9576;47.792;9.628;2022-09-01T15:22:04;30.50;99.90
18888;DHT22;9576;47.792;9.628;2022-09-01T15:25:08;31.80;98.60
18888;DHT22;9576;47.792;9.628;2022-09-01T15:28:10;32.70;98.90
18888;DHT22;9576;47.792;9.628;2022-09-01T15:31:14;33.40;96.40
18888;DHT22;9576;47.792;9.628;2022-09-01T15:34:18;33.80;96.50
18888;DHT22;9576;47.792;9.628;2022-09-01T15:37:21;33.80;94.50
18888;DHT22;9576;47.792;9.628;2022-09-01T15:40:23;33.90;94.10
18888;DHT22;9576;47.792;9.628;2022-09-01T15:43:27;33.60;93.20
18888;DHT22;9576;47.792;9.628;2022-09-01T15:46:29;33.20;92.70
18888;DHT22;9576;47.792;9.628;2022-09-01T15:49:35;33.60;91.90
18888;DHT22;9576;47.792;9.628;2022-09-01T15:52:46;34.20;92.20
18888;DHT22;9576;47.792;9.628;2022-09-01T15:55:50;34.90;92.50
18888;DHT22;9576;47.792;9.628;2022-09-01T15:58:52;35.10;92.00
18888;DHT22;9576;47.792;9.628;2022-09-01T16:01:55;34.70;92.70
18888;DHT22;9576;47.792;9.628;2022-09-01T16:04:59;33.50;91.90
18888;DHT22;9576;47.792;9.628;2022-09-01T16:08:02;32.50;93.70
18888;DHT22;9576;47.792;9.628;2022-09-01T16:11:06;32.20;92.30
18888;DHT22;9576;47.792;9.628;2022-09-01T16:14:09;32.40;92.40
18888;DHT22;9576;47.792;9.628;2022-09-01T16:17:16;32.70;92.30
18888;DHT22;9576;47.792;9.628;2022-09-01T16:20:25;32.10;91.70
18888;DHT22;9576;47.792;9.628;2022-09-01T16:23:33;31.30;92.20
18888;DHT22;9576;47.792;9.628;2022-09-01T16:26:43;31.00;93.00
18888;DHT22;9576;47.792;9.628;2022-09-01T16:29:48;30.90;92.90
18888;DHT22;9576;47.792;9.628;2022-09-01T16:32:51;30.70;93.90
18888;DHT22;9576;47.792;9.628;2022-09-01T16:36:11;30.30;93.60
18888;DHT22;9576;47.792;9.628;2022-09-01T16:39:23;29.90;94.50
18888;DHT22;9576;47.792;9.628;2022-09-01T16:42:33;29.60;95.20
18888;DHT22;9576;47.792;9.628;2022-09-01T16:45:43;29.60;95.60
18888;DHT22;9576;47.792;9.628;2022-09-01T16:48:50;28.90;94.60
18888;DHT22;9576;47.792;9.628;2022-09-01T16:52:01;28.60;96.00
18888;DHT22;9576;47.792;9.628;2022-09-01T16:55:15;28.30;96.40
18888;DHT22;9576;47.792;9.628;2022-09-01T16:58:22;28.50;96.90
18888;DHT22;9576;47.792;9.628;2022-09-01T17:01:38;29.30;96.20
18888;DHT22;9576;47.792;9.628;2022-09-01T17:04:45;30.30;94.60
18888;DHT22;9576;47.792;9.628;2022-09-01T17:07:56;30.70;93.00
18888;DHT22;9576;47.792;9.628;2022-09-01T17:11:05;30.40;93.10
18888;DHT22;9576;47.792;9.628;2022-09-01T17:14:09;29.90;93.70
18888;DHT22;9576;47.792;9.628;2022-09-01T17:17:32;30.30;93.70
18888;DHT22;9576;47.792;9.628;2022-09-01T17:20:38;30.10;93.50
18888;DHT22;9576;47.792;9.628;2022-09-01T17:23:49;29.20;94.20
18888;DHT22;9576;47.792;9.628;2022-09-01T17:26:55;27.50;95.20
18888;DHT22;9576;47.792;9.628;2022-09-01T17:30:05;26.10;97.70
18888;DHT22;9576;47.792;9.628;2022-09-01T17:33:16;25.10;99.50
18888;DHT22;9576;47.792;9.628;2022-09-01T17:36:23;24.20;99.90
18888;DHT22;9576;47.792;9.628;2022-09-01T17:39:39;23.50;99.90
18888;DHT22;9576;47.792;9.628;2022-09-01T17:42:48;22.80;99.90
18888;DHT22;9576;47.792;9.628;2022-09-01T17:45:59;22.20;99.90
18888;DHT22;9576;47.792;9.628;2022-09-01T17:49:13;21.70;99.90
18888;DHT22;9576;47.792;9.628;2022-09-01T17:52:24;21.30;99.90
18888;DHT22;9576;47.792;9.628;2022-09-01T17:55:41;21.00;99.90
18888;DHT22;9576;47.792;9.628;2022-09-01T17:58:51;20.70;99.90
18888;DHT22;9576;47.792;9.628;2022-09-01T18:02:08;20.50;99.90
18888;DHT22;9576;47.792;9.628;2022-09-01T18:05:15;20.40;99.90
18888;DHT22;9576;47.792;9.628;2022-09-01T18:08:21;20.20;99.90
18888;DHT22;9576;47.792;9.628;2022-09-01T18:11:34;20.10;99.90
18888;DHT22;9576;47.792;9.628;2022-09-01T18:14:46;19.90;99.90
18888;DHT22;9576;47.792;9.628;2022-09-01T18:17:59;19.70;99.90
18888;DHT22;9576;47.792;9.628;2022-09-01T18:21:04;19.50;99.90
18888;DHT22;9576;47.792;9.628;2022-09-01T18:24:14;19.40;99.90
18888;DHT22;9576;47.792;9.628;2022-09-01T18:27:18;19.40;99.90
18888;DHT22;9576;47.792;9.628;2022-09-01T18:30:21;19.30;99.90
18888;DHT22;9576;47.792;9.628;2022-09-01T18:33:28;19.10;99.90
18888;DHT22;9576;47.792;9.628;2022-09-01T18:36:38;19.00;99.90
18888;DHT22;9576;47.792;9.628;2022-09-01T18:39:49;18.80;99.90
18888;DHT22;9576;47.792;9.628;2022-09-01T18:43:01;18.70;99.90
18888;DHT22;9576;47.792;9.628;2022-09-01T18:46:12;18.60;99.90
18888;DHT22;9576;47.792;9.628;2022-09-01T18:49:25;18.50;99.90
18888;DHT22;9576;47.792;9.628;2022-09-01T18:56:15;18.20;99.90
18888;DHT22;9576;47.792;9.628;2022-09-01T18:59:42;18.10;99.90
18888;DHT22;9576;47.792;9.628;2022-09-01T19:03:05;18.00;99.90
18888;DHT22;9576;47.792;9.628;2022-09-01T19:06:29;18.00;99.90
18888;DHT22;9576;47.792;9.628;2022-09-01T19:09:36;17.90;99.90
18888;DHT22;9576;47.792;9.628;2022-09-01T19:12:44;17.80;99.90
18888;DHT22;9576;47.792;9.628;2022-09-01T19:15:56;17.80;99.90
18888;DHT22;9576;47.792;9.628;2022-09-01T19:19:13;17.70;99.90
18888;DHT22;9576;47.792;9.628;2022-09-01T19:22:20;17.70;99.90
18888;DHT22;9576;47.792;9.628;2022-09-01T19:25:23;17.70;99.90
18888;DHT22;9576;47.792;9.628;2022-09-01T19:28:39;17.60;99.90
18888;DHT22;9576;47.792;9.628;2022-09-01T19:31:46;17.50;99.90
18888;DHT22;9576;47.792;9.628;2022-09-01T19:34:51;17.40;99.90
18888;DHT22;9576;47.792;9.628;2022-09-01T19:37:54;17.20;99.90
18888;DHT22;9576;47.792;9.628;2022-09-01T19:41:03;17.10;99.90
18888;DHT22;9576;47.792;9.628;2022-09-01T19:44:12;17.00;99.90
18888;DHT22;9576;47.792;9.628;2022-09-01T19:47:20;17.00;99.90
18888;DHT22;9576;47.792;9.628;2022-09-01T19:50:28;17.00;99.90
18888;DHT22;9576;47.792;9.628;2022-09-01T19:53:39;17.00;99.90
18888;DHT22;9576;47.792;9.628;2022-09-01T19:56:46;16.90;99.90